Time;durP1;ratioP1;P1;durP2;ratioP2;P2;SDS_P1;SDS_P2;PMS_P1;PMS_P2;Temp;Humidity;BMP_temperature;BMP_pressure;BME280_temperature;BME280_humidity;BME280_pressure;Samples;Min_cycle;Max_cycle;Signal;HPM_P1;HPM_P2
2022/05/27 00:00:54;;;;;;;;;2.00;1.75;;;;;;;;5098214;27;45254;-78
2022/05/27 00:03:19;;;;;;;;;5.33;3.00;;;;;;;;5098346;27;45199;-78
2022/05/27 00:06:01;;;;;;;;;2.00;2.00;;;;;;;;5098094;27;45224;-77
2022/05/27 00:08:28;;;;;;;;;1.00;1.00;;;;;;;;5097741;27;46237;-78
2022/05/27 00:10:54;;;;;;;;;2.00;2.00;;;;;;;;5098126;27;45244;-77
2022/05/27 00:13:34;;;;;;;;;4.25;2.00;;;;;;;;5098116;27;45398;-77
2022/05/27 00:16:00;;;;;;;;;4.00;1.00;;;;;;;;5098165;27;45350;-78
2022/05/27 00:18:25;;;;;;;;;3.50;1.75;;;;;;;;5097761;27;45438;-77
2022/05/27 00:20:55;;;;;;;;;5.50;2.75;;;;;;;;5097764;27;45366;-77
2022/05/27 00:23:20;;;;;;;;;2.50;1.50;;;;;;;;5097800;27;45311;-77
2022/05/27 00:25:49;;;;;;;;;3.50;2.50;;;;;;;;5098017;27;45526;-77
2022/05/27 00:28:17;;;;;;;;;3.00;2.00;;;;;;;;5097705;27;46257;-77
2022/05/27 00:30:42;;;;;;;;;3.75;2.75;;;;;;;;5097514;27;45347;-78
2022/05/27 00:33:10;;;;;;;;;4.67;2.00;;;;;;;;5098212;27;45360;-78
2022/05/27 00:35:38;;;;;;;;;5.00;2.00;;;;;;;;5097843;27;45515;-77
2022/05/27 00:38:04;;;;;;;;;3.25;2.00;;;;;;;;5097344;27;47563;-77
2022/05/27 00:40:37;;;;;;;;;0.75;0.75;;;;;;;;5097782;27;45310;-77
2022/05/27 00:43:02;;;;;;;;;7.33;2.00;;;;;;;;5097641;27;45310;-77
2022/05/27 00:45:30;;;;;;;;;2.00;1.00;;;;;;;;5098172;27;45328;-77
2022/05/27 00:47:57;;;;;;;;;2.00;2.00;;;;;;;;5101262;27;46415;-78
2022/05/27 00:50:40;;;;;;;;;3.00;1.75;;;;;;;;5101286;27;45284;-77
2022/05/27 00:53:07;;;;;;;;;2.00;2.00;;;;;;;;5101128;27;45445;-77
2022/05/27 00:55:52;;;;;;;;;3.00;2.00;;;;;;;;5101076;27;45507;-78
2022/05/27 00:58:23;;;;;;;;;2.75;1.00;;;;;;;;5100853;27;46631;-77
2022/05/27 01:00:48;;;;;;;;;2.25;1.50;;;;;;;;5101094;27;45419;-78
2022/05/27 01:03:15;;;;;;;;;3.00;1.00;;;;;;;;5100853;27;45286;-77
2022/05/27 01:05:46;;;;;;;;;2.33;2.00;;;;;;;;5101399;27;45420;-78
2022/05/27 01:08:18;;;;;;;;;3.67;2.33;;;;;;;;5099274;27;47502;-78
2022/05/27 01:10:43;;;;;;;;;1.75;0.75;;;;;;;;5100810;27;45352;-77
2022/05/27 01:13:20;;;;;;;;;2.00;2.00;;;;;;;;5101038;27;45425;-77
2022/05/27 01:15:54;;;;;;;;;3.00;1.00;;;;;;;;5100999;27;45262;-77
2022/05/27 01:20:18;;;;;;;;;3.00;1.75;;;;;;;;5100282;27;45334;-75
2022/05/27 01:21:14;;;;;;;;;1.00;1.00;;;;;;;;5099169;27;45700;-73
2022/05/27 01:23:55;;;;;;;;;2.67;1.00;;;;;;;;5099938;27;45324;-74
2022/05/27 01:26:26;;;;;;;;;1.00;0.50;;;;;;;;5100537;27;45405;-73
2022/05/27 01:29:00;;;;;;;;;2.25;1.50;;;;;;;;5099774;27;46666;-74
2022/05/27 01:31:44;;;;;;;;;2.00;2.00;;;;;;;;5099904;27;45224;-74
2022/05/27 01:34:21;;;;;;;;;3.50;2.00;;;;;;;;5099977;27;45557;-74
2022/05/27 01:37:01;;;;;;;;;4.75;2.00;;;;;;;;5099996;27;45437;-74
2022/05/27 01:39:26;;;;;;;;;3.75;1.75;;;;;;;;5099619;27;46676;-74
2022/05/27 01:41:51;;;;;;;;;5.00;3.33;;;;;;;;5099969;27;45414;-74
2022/05/27 01:44:36;;;;;;;;;7.00;2.50;;;;;;;;5099900;27;45725;-74
2022/05/27 01:47:05;;;;;;;;;2.00;2.00;;;;;;;;5100072;27;45406;-75
2022/05/27 01:49:36;;;;;;;;;2.00;2.00;;;;;;;;5099648;27;46477;-74
2022/05/27 01:52:10;;;;;;;;;3.00;2.50;;;;;;;;5099405;27;45461;-74
2022/05/27 01:54:47;;;;;;;;;9.00;3.00;;;;;;;;5099481;27;45445;-74
2022/05/27 01:57:33;;;;;;;;;4.33;2.33;;;;;;;;5099049;27;45396;-74
2022/05/27 02:00:08;;;;;;;;;5.33;4.67;;;;;;;;5099415;27;45421;-73
2022/05/27 02:02:37;;;;;;;;;4.00;4.00;;;;;;;;5099631;27;45512;-74
2022/05/27 02:05:27;;;;;;;;;5.50;2.50;;;;;;;;5099531;27;45310;-73
2022/05/27 02:07:57;;;;;;;;;3.67;3.67;;;;;;;;5099476;27;45846;-74
2022/05/27 02:10:35;;;;;;;;;6.00;3.00;;;;;;;;5099271;27;46296;-73
2022/05/27 02:13:03;;;;;;;;;8.33;2.67;;;;;;;;5099913;27;45367;-75
2022/05/27 02:15:31;;;;;;;;;4.50;2.75;;;;;;;;5099976;27;45213;-75
2022/05/27 02:18:01;;;;;;;;;5.25;4.75;;;;;;;;5099894;27;45297;-75
2022/05/27 02:20:41;;;;;;;;;4.00;3.00;;;;;;;;5099580;27;45826;-74
2022/05/27 02:23:35;;;;;;;;;3.67;3.00;;;;;;;;5099856;27;45460;-76
2022/05/27 02:26:04;;;;;;;;;7.00;3.00;;;;;;;;5099489;27;45683;-74
2022/05/27 02:28:39;;;;;;;;;5.67;3.00;;;;;;;;5099851;27;45868;-75
2022/05/27 02:31:07;;;;;;;;;8.33;4.67;;;;;;;;5099564;27;45335;-75
2022/05/27 02:36:26;;;;;;;;;7.33;3.00;;;;;;;;5099777;27;45267;-74
2022/05/27 02:38:51;;;;;;;;;10.00;3.00;;;;;;;;5099390;27;45531;-75
2022/05/27 02:41:24;;;;;;;;;3.00;3.00;;;;;;;;5099174;27;45415;-75
2022/05/27 02:44:03;;;;;;;;;9.00;4.33;;;;;;;;5098484;27;45387;-74
2022/05/27 02:46:31;;;;;;;;;8.00;4.67;;;;;;;;5099676;27;45253;-74
2022/05/27 02:49:16;;;;;;;;;8.67;4.33;;;;;;;;5099547;27;45217;-75
2022/05/27 02:51:50;;;;;;;;;5.33;4.67;;;;;;;;5015784;28;46587;-75
2022/05/27 02:54:18;;;;;;;;;9.00;6.00;;;;;;;;5016258;28;45367;-74
2022/05/27 02:56:59;;;;;;;;;7.00;4.00;;;;;;;;5016181;28;45450;-75
2022/05/27 02:59:25;;;;;;;;;7.00;7.00;;;;;;;;5016448;28;45606;-75
2022/05/27 03:01:50;;;;;;;;;9.00;5.67;;;;;;;;5016027;28;46309;-74
2022/05/27 03:04:18;;;;;;;;;6.67;3.33;;;;;;;;5016358;28;45393;-75
2022/05/27 03:07:02;;;;;;;;;5.33;5.33;;;;;;;;5016300;28;45406;-74
2022/05/27 03:09:33;;;;;;;;;6.00;5.33;;;;;;;;5015993;28;45556;-75
2022/05/27 03:12:07;;;;;;;;;12.00;6.00;;;;;;;;5015805;28;45585;-75
2022/05/27 03:14:35;;;;;;;;;8.67;6.00;;;;;;;;5016228;28;45357;-75
2022/05/27 03:17:00;;;;;;;;;8.67;5.33;;;;;;;;5016019;28;45488;-75
2022/05/27 03:19:35;;;;;;;;;9.67;5.00;;;;;;;;5016201;28;45373;-75
2022/05/27 03:22:38;;;;;;;;;9.33;6.00;;;;;;;;5015861;28;45619;-74
2022/05/27 03:25:18;;;;;;;;;9.67;5.67;;;;;;;;5015678;28;45482;-75
2022/05/27 03:28:02;;;;;;;;;9.00;4.67;;;;;;;;5020047;27;45433;-74
2022/05/27 03:30:32;;;;;;;;;5.00;4.67;;;;;;;;5098927;27;45738;-75
2022/05/27 03:33:03;;;;;;;;;7.67;5.00;;;;;;;;5098356;27;45374;-75
2022/05/27 03:35:35;;;;;;;;;6.33;4.00;;;;;;;;5098543;27;45330;-75
2022/05/27 03:38:19;;;;;;;;;8.00;4.67;;;;;;;;5098659;27;45296;-75
2022/05/27 03:40:45;;;;;;;;;7.33;5.67;;;;;;;;5098600;27;45316;-75
2022/05/27 03:43:10;;;;;;;;;6.33;5.00;;;;;;;;5098113;27;45448;-75
2022/05/27 03:45:50;;;;;;;;;9.67;5.00;;;;;;;;5098362;27;45315;-75
2022/05/27 03:48:17;;;;;;;;;4.00;4.00;;;;;;;;5098611;27;45438;-75
2022/05/27 03:50:43;;;;;;;;;7.33;5.00;;;;;;;;5098501;27;45442;-75
2022/05/27 03:53:08;;;;;;;;;7.00;3.33;;;;;;;;5097943;27;46648;-75
2022/05/27 03:55:33;;;;;;;;;4.00;3.33;;;;;;;;5098002;27;45329;-75
2022/05/27 03:57:59;;;;;;;;;14.67;5.00;;;;;;;;5098343;27;45280;-75
2022/05/27 04:00:24;;;;;;;;;5.33;2.33;;;;;;;;5098410;27;45349;-75
2022/05/27 04:02:49;;;;;;;;;10.00;6.00;;;;;;;;5098209;27;45563;-76
2022/05/27 04:05:16;;;;;;;;;11.67;5.67;;;;;;;;5098188;27;45401;-75
2022/05/27 04:07:41;;;;;;;;;5.67;5.00;;;;;;;;5098238;27;45445;-75
2022/05/27 04:10:08;;;;;;;;;7.67;4.33;;;;;;;;5098050;27;45465;-75
2022/05/27 04:12:33;;;;;;;;;9.67;5.00;;;;;;;;5098203;27;46588;-75
2022/05/27 04:14:58;;;;;;;;;7.33;4.00;;;;;;;;5097793;27;45383;-75
2022/05/27 04:17:30;;;;;;;;;6.67;4.00;;;;;;;;5098026;27;45862;-75
2022/05/27 04:20:15;;;;;;;;;11.67;7.00;;;;;;;;5102472;27;45593;-75
2022/05/27 04:22:41;;;;;;;;;10.33;7.00;;;;;;;;5096400;27;45372;-75
2022/05/27 04:25:07;;;;;;;;;4.67;4.00;;;;;;;;5085268;27;45345;-75
2022/05/27 04:27:33;;;;;;;;;12.00;9.67;;;;;;;;5095420;27;45470;-75
2022/05/27 04:29:58;;;;;;;;;7.67;4.67;;;;;;;;5118864;27;45880;-75
2022/05/27 04:32:25;;;;;;;;;6.33;3.00;;;;;;;;5107606;27;46352;-74
2022/05/27 04:34:50;;;;;;;;;9.00;6.33;;;;;;;;5098806;27;45451;-75
2022/05/27 04:37:16;;;;;;;;;6.33;3.33;;;;;;;;5098159;27;45514;-74
2022/05/27 04:39:41;;;;;;;;;5.33;4.00;;;;;;;;5097731;27;45442;-75
2022/05/27 04:42:07;;;;;;;;;7.33;6.00;;;;;;;;5097755;27;45623;-75
2022/05/27 04:44:33;;;;;;;;;9.67;6.00;;;;;;;;5097612;27;45311;-74
2022/05/27 04:46:58;;;;;;;;;8.67;7.00;;;;;;;;5097829;27;45383;-75
2022/05/27 04:52:07;;;;;;;;;3.50;2.00;;;;;;;;5092937;27;45326;-75
2022/05/27 04:54:32;;;;;;;;;7.00;4.33;;;;;;;;5118056;27;45511;-75
2022/05/27 04:56:59;;;;;;;;;8.33;4.00;;;;;;;;5089700;27;45238;-75
2022/05/27 04:59:24;;;;;;;;;3.00;3.00;;;;;;;;5077118;27;45471;-74
2022/05/27 05:01:49;;;;;;;;;11.33;11.33;;;;;;;;5077936;27;45666;-75
2022/05/27 05:04:15;;;;;;;;;6.67;4.00;;;;;;;;5087783;27;45311;-75
2022/05/27 05:06:40;;;;;;;;;23.00;18.33;;;;;;;;5097683;27;45165;-75
2022/05/27 05:09:05;;;;;;;;;6.67;5.00;;;;;;;;5082517;27;45347;-75
2022/05/27 05:11:31;;;;;;;;;5.67;5.00;;;;;;;;5076677;27;46332;-74
2022/05/27 05:13:56;;;;;;;;;9.00;6.00;;;;;;;;5088805;27;45738;-74
2022/05/27 05:16:21;;;;;;;;;5.00;4.00;;;;;;;;5094269;27;45747;-74
2022/05/27 05:18:47;;;;;;;;;6.33;4.33;;;;;;;;5089753;27;45403;-74
2022/05/27 05:21:12;;;;;;;;;8.50;4.00;;;;;;;;5077617;27;45383;-74
2022/05/27 05:23:38;;;;;;;;;5.00;4.00;;;;;;;;5078086;27;45221;-74
2022/05/27 05:26:03;;;;;;;;;4.33;4.00;;;;;;;;5077225;27;45491;-74
2022/05/27 05:28:29;;;;;;;;;3.33;3.00;;;;;;;;5093064;27;45362;-74
2022/05/27 05:30:54;;;;;;;;;9.00;5.00;;;;;;;;5090171;27;45445;-74
2022/05/27 05:33:19;;;;;;;;;9.67;5.33;;;;;;;;5097604;27;45264;-74
2022/05/27 05:35:46;;;;;;;;;7.67;5.67;;;;;;;;5086347;27;45350;-75
2022/05/27 05:38:13;;;;;;;;;10.33;5.00;;;;;;;;5080035;27;45359;-74
2022/05/27 05:40:38;;;;;;;;;4.00;2.33;;;;;;;;5099628;27;45468;-74
2022/05/27 05:43:04;;;;;;;;;7.67;7.33;;;;;;;;5093723;27;45305;-74
2022/05/27 05:45:29;;;;;;;;;7.00;4.00;;;;;;;;5080609;27;45280;-74
2022/05/27 05:47:54;;;;;;;;;5.00;3.00;;;;;;;;5084798;27;45223;-74
2022/05/27 05:50:19;;;;;;;;;6.67;4.67;;;;;;;;5099720;27;46606;-74
2022/05/27 05:52:45;;;;;;;;;7.33;5.00;;;;;;;;5091744;27;45227;-74
2022/05/27 05:55:12;;;;;;;;;4.33;3.00;;;;;;;;5110976;27;45359;-74
2022/05/27 05:57:41;;;;;;;;;5.33;3.67;;;;;;;;5118866;27;45239;-74
2022/05/27 06:00:08;;;;;;;;;5.00;5.00;;;;;;;;5093528;27;46468;-74
2022/05/27 06:02:33;;;;;;;;;4.33;4.33;;;;;;;;5084739;27;45407;-74
2022/05/27 06:04:58;;;;;;;;;5.00;3.00;;;;;;;;5100142;27;45218;-73
2022/05/27 06:07:24;;;;;;;;;5.50;4.00;;;;;;;;5099772;27;45371;-74
2022/05/27 06:09:49;;;;;;;;;5.33;5.33;;;;;;;;5097963;27;45235;-73
2022/05/27 06:12:15;;;;;;;;;7.67;6.00;;;;;;;;5101620;27;45438;-74
2022/05/27 06:14:40;;;;;;;;;5.00;4.00;;;;;;;;5086414;27;45473;-74
2022/05/27 06:17:06;;;;;;;;;6.00;5.00;;;;;;;;5083374;27;45441;-73
2022/05/27 06:19:31;;;;;;;;;11.00;5.00;;;;;;;;5099007;27;45472;-74
2022/05/27 06:21:56;;;;;;;;;3.67;3.00;;;;;;;;5120303;27;45403;-73
2022/05/27 06:24:21;;;;;;;;;5.67;5.67;;;;;;;;5088188;27;45470;-74
2022/05/27 06:26:47;;;;;;;;;6.00;3.67;;;;;;;;5080451;27;45249;-73
2022/05/27 06:34:40;;;;;;;;;6.00;5.00;;;;;;;;5097334;27;45291;-74
2022/05/27 06:37:08;;;;;;;;;5.00;5.00;;;;;;;;5098442;27;45235;-74
2022/05/27 06:39:35;;;;;;;;;5.67;4.67;;;;;;;;5099319;27;47568;-74
2022/05/27 06:42:00;;;;;;;;;5.00;4.00;;;;;;;;5098917;27;45411;-74
2022/05/27 06:44:25;;;;;;;;;5.00;4.67;;;;;;;;5098790;27;45412;-74
2022/05/27 06:46:52;;;;;;;;;4.00;2.25;;;;;;;;5097548;27;45366;-74
2022/05/27 06:49:18;;;;;;;;;5.33;5.00;;;;;;;;5098777;27;47426;-74
2022/05/27 06:51:43;;;;;;;;;7.67;4.67;;;;;;;;5081420;27;45597;-74
2022/05/27 06:54:09;;;;;;;;;5.67;4.33;;;;;;;;5104329;27;45236;-74
2022/05/27 06:56:36;;;;;;;;;5.67;5.67;;;;;;;;5119641;27;45228;-74
2022/05/27 06:59:02;;;;;;;;;11.67;5.00;;;;;;;;5093248;27;45499;-74
2022/05/27 07:01:27;;;;;;;;;5.33;4.00;;;;;;;;5094544;27;45425;-74
2022/05/27 07:03:52;;;;;;;;;5.50;4.00;;;;;;;;5089583;27;45558;-75
2022/05/27 07:06:18;;;;;;;;;9.33;6.33;;;;;;;;5087470;27;45309;-74
2022/05/27 07:08:43;;;;;;;;;4.75;3.00;;;;;;;;5088033;27;45472;-73
2022/05/27 07:11:08;;;;;;;;;4.00;2.00;;;;;;;;5094693;27;45291;-74
2022/05/27 07:13:34;;;;;;;;;3.75;2.00;;;;;;;;5077143;27;45697;-73
2022/05/27 07:15:59;;;;;;;;;4.67;4.67;;;;;;;;5077276;28;45431;-74
2022/05/27 07:18:24;;;;;;;;;6.25;1.50;;;;;;;;5089194;27;45763;-74
2022/05/27 07:20:50;;;;;;;;;3.00;1.33;;;;;;;;5083002;27;45303;-74
2022/05/27 07:23:17;;;;;;;;;2.33;2.00;;;;;;;;5080247;27;45382;-75
2022/05/27 07:25:42;;;;;;;;;12.00;7.33;;;;;;;;5078478;28;45491;-74
2022/05/27 07:28:08;;;;;;;;;12.67;10.00;;;;;;;;5077687;27;45324;-75
2022/05/27 07:30:33;;;;;;;;;6.00;3.00;;;;;;;;5076896;27;45822;-74
2022/05/27 07:32:59;;;;;;;;;5.33;4.00;;;;;;;;5085395;27;45455;-74
2022/05/27 07:35:24;;;;;;;;;3.67;3.67;;;;;;;;5089909;27;45482;-75
2022/05/27 07:37:50;;;;;;;;;4.75;2.50;;;;;;;;5087864;27;46405;-74
2022/05/27 07:40:15;;;;;;;;;3.50;2.50;;;;;;;;5086295;27;45474;-74
2022/05/27 07:42:41;;;;;;;;;3.00;3.00;;;;;;;;5092330;27;45909;-74
2022/05/27 07:45:07;;;;;;;;;3.00;3.00;;;;;;;;5077774;27;45517;-73
2022/05/27 07:47:33;;;;;;;;;2.00;2.00;;;;;;;;5088150;27;46528;-73
2022/05/27 07:49:58;;;;;;;;;2.00;2.00;;;;;;;;5076866;27;45308;-73
2022/05/27 07:52:23;;;;;;;;;3.00;3.00;;;;;;;;5076637;27;45515;-73
2022/05/27 07:54:50;;;;;;;;;2.33;2.33;;;;;;;;5087330;27;45575;-73
2022/05/27 07:57:25;;;;;;;;;1.00;1.00;;;;;;;;5096209;27;46244;-74
2022/05/27 08:00:06;;;;;;;;;3.75;2.00;;;;;;;;5096309;27;45481;-73
2022/05/27 08:02:31;;;;;;;;;6.00;3.00;;;;;;;;5095790;27;45600;-72
2022/05/27 08:04:57;;;;;;;;;1.00;1.00;;;;;;;;5097059;27;45379;-74
2022/05/27 08:07:23;;;;;;;;;4.00;2.00;;;;;;;;5090230;27;46061;-73
2022/05/27 08:09:49;;;;;;;;;2.00;2.00;;;;;;;;5091619;27;45488;-73
2022/05/27 08:12:14;;;;;;;;;2.33;1.67;;;;;;;;5082505;27;45555;-73
2022/05/27 08:14:39;;;;;;;;;5.33;4.00;;;;;;;;5094957;27;45408;-73
2022/05/27 08:17:05;;;;;;;;;1.25;0.00;;;;;;;;5088653;27;45397;-73
2022/05/27 08:19:30;;;;;;;;;3.00;2.00;;;;;;;;5083891;27;45378;-74
2022/05/27 08:21:55;;;;;;;;;4.00;2.33;;;;;;;;5095996;27;45380;-74
2022/05/27 08:24:21;;;;;;;;;2.33;1.33;;;;;;;;5096677;27;45810;-73
2022/05/27 08:26:49;;;;;;;;;2.00;2.00;;;;;;;;5085529;27;46431;-74
2022/05/27 08:29:14;;;;;;;;;1.00;1.00;;;;;;;;5091587;27;45425;-75
2022/05/27 08:31:40;;;;;;;;;1.50;1.50;;;;;;;;5082992;27;45453;-74
2022/05/27 08:39:34;;;;;;;;;12.00;12.00;;;;;;;;5076072;27;45445;-76
2022/05/27 08:42:03;;;;;;;;;4.67;2.00;;;;;;;;5076486;27;45405;-77
2022/05/27 08:44:48;;;;;;;;;4.50;2.00;;;;;;;;5077909;27;45290;-76
2022/05/27 08:47:14;;;;;;;;;3.00;2.00;;;;;;;;5091774;27;46401;-75
2022/05/27 08:49:41;;;;;;;;;2.00;2.00;;;;;;;;5096423;27;45405;-72
2022/05/27 08:52:20;;;;;;;;;4.67;3.00;;;;;;;;5095657;27;45842;-73
2022/05/27 08:54:51;;;;;;;;;4.00;2.33;;;;;;;;5076065;28;45599;-73
2022/05/27 09:00:14;;;;;;;;;2.00;2.00;;;;;;;;5082675;27;45478;-72
2022/05/27 09:02:39;;;;;;;;;3.00;1.00;;;;;;;;5097479;27;45253;-74
2022/05/27 09:05:21;;;;;;;;;1.50;1.00;;;;;;;;5096895;27;45447;-73
2022/05/27 09:07:46;;;;;;;;;3.00;3.00;;;;;;;;5094367;27;47075;-74
2022/05/27 09:10:37;;;;;;;;;4.33;4.33;;;;;;;;5108946;27;45604;-75
2022/05/27 09:13:02;;;;;;;;;2.00;2.00;;;;;;;;5086031;27;45895;-74
2022/05/27 09:15:28;;;;;;;;;3.00;3.00;;;;;;;;5078069;27;45436;-74
2022/05/27 09:17:53;;;;;;;;;5.33;4.00;;;;;;;;5066019;28;47282;-74
2022/05/27 09:20:44;;;;;;;;;4.00;3.00;;;;;;;;5055849;28;45359;-74
2022/05/27 09:23:28;;;;;;;;;4.00;4.00;;;;;;;;5041733;28;45669;-74
2022/05/27 09:26:13;;;;;;;;;4.00;4.00;;;;;;;;5057308;28;45481;-75
2022/05/27 09:28:39;;;;;;;;;3.00;3.00;;;;;;;;5055118;28;46086;-74
2022/05/27 09:31:06;;;;;;;;;4.00;4.00;;;;;;;;5056362;28;45409;-74
2022/05/27 09:33:32;;;;;;;;;5.00;3.00;;;;;;;;5056277;28;45394;-74
2022/05/27 09:36:14;;;;;;;;;4.00;4.00;;;;;;;;5056172;28;45550;-74
2022/05/27 09:38:45;;;;;;;;;3.00;3.00;;;;;;;;5055920;28;47137;-74
2022/05/27 09:41:29;;;;;;;;;3.67;3.67;;;;;;;;5056544;28;45423;-74
2022/05/27 09:44:16;;;;;;;;;3.67;3.67;;;;;;;;5056004;28;45551;-74
2022/05/27 09:46:41;;;;;;;;;4.00;4.00;;;;;;;;5057174;28;45450;-74
2022/05/27 09:49:07;;;;;;;;;3.00;3.00;;;;;;;;5060653;27;45466;-74
2022/05/27 09:51:32;;;;;;;;;4.00;3.33;;;;;;;;5080021;28;45446;-74
2022/05/27 09:54:03;;;;;;;;;5.00;3.67;;;;;;;;5078829;28;45562;-75
2022/05/27 09:56:36;;;;;;;;;2.33;2.33;;;;;;;;5078382;28;45429;-75
2022/05/27 09:59:20;;;;;;;;;2.33;2.33;;;;;;;;5078044;28;46287;-73
2022/05/27 10:01:45;;;;;;;;;6.67;6.67;;;;;;;;5100561;27;45622;-74
2022/05/27 10:04:14;;;;;;;;;1.67;1.67;;;;;;;;5118928;27;45301;-74
2022/05/27 10:06:39;;;;;;;;;4.00;1.00;;;;;;;;5120077;27;45419;-74
2022/05/27 10:09:06;;;;;;;;;3.33;3.00;;;;;;;;5120360;27;46624;-74
2022/05/27 10:11:51;;;;;;;;;4.67;4.00;;;;;;;;5112049;27;45526;-73
2022/05/27 10:14:24;;;;;;;;;3.67;3.67;;;;;;;;5098601;27;45489;-74
2022/05/27 10:16:58;;;;;;;;;6.00;2.67;;;;;;;;5098106;27;45404;-74
2022/05/27 10:19:24;;;;;;;;;2.00;2.00;;;;;;;;5099152;27;46570;-73
2022/05/27 10:21:57;;;;;;;;;1.67;1.67;;;;;;;;5102631;27;45509;-73
2022/05/27 10:24:22;;;;;;;;;1.00;1.00;;;;;;;;5097957;27;45670;-73
2022/05/27 10:27:00;;;;;;;;;2.00;2.00;;;;;;;;5097925;27;45471;-73
2022/05/27 10:29:25;;;;;;;;;1.00;1.00;;;;;;;;5097569;27;45683;-73
2022/05/27 10:31:53;;;;;;;;;1.00;1.00;;;;;;;;5097443;27;45565;-73
2022/05/27 10:34:37;;;;;;;;;1.00;1.00;;;;;;;;5101942;27;45510;-73
2022/05/27 10:37:44;;;;;;;;;1.00;1.00;;;;;;;;5119986;27;45359;-73
2022/05/27 10:40:12;;;;;;;;;1.33;0.33;;;;;;;;5052335;28;47369;-73
2022/05/27 10:42:46;;;;;;;;;0.67;0.00;;;;;;;;5034528;28;45426;-73
2022/05/27 10:45:11;;;;;;;;;0.67;0.67;;;;;;;;5034469;28;45457;-74
2022/05/27 10:47:45;;;;;;;;;2.33;0.67;;;;;;;;5037638;28;45397;-75
2022/05/27 10:50:22;;;;;;;;;1.67;1.67;;;;;;;;5037644;28;45598;-74
2022/05/27 10:52:47;;;;;;;;;5.00;5.00;;;;;;;;5034195;28;45421;-74
2022/05/27 10:55:18;;;;;;;;;4.67;3.33;;;;;;;;5037372;28;45460;-73
2022/05/27 11:03:41;;;;;;;;;5.67;5.67;;;;;;;;5041483;28;45480;-74
2022/05/27 11:06:14;;;;;;;;;4.67;4.67;;;;;;;;5054482;28;45475;-74
2022/05/27 11:08:48;;;;;;;;;4.67;4.67;;;;;;;;5054038;28;45431;-73
2022/05/27 11:11:24;;;;;;;;;8.00;5.00;;;;;;;;5071174;27;45438;-73
2022/05/27 11:16:55;;;;;;;;;4.33;4.33;;;;;;;;5097448;27;45381;-75
2022/05/27 11:19:39;;;;;;;;;5.33;5.33;;;;;;;;5097964;27;45453;-76
2022/05/27 11:22:04;;;;;;;;;4.00;4.00;;;;;;;;5097713;27;45802;-74
2022/05/27 11:24:32;;;;;;;;;9.00;6.00;;;;;;;;5097830;27;45847;-75
2022/05/27 11:27:13;;;;;;;;;6.00;6.00;;;;;;;;5097672;27;45420;-75
2022/05/27 11:29:56;;;;;;;;;7.33;7.33;;;;;;;;5097439;27;45545;-74
2022/05/27 11:32:30;;;;;;;;;9.33;5.67;;;;;;;;5097535;27;47432;-74
2022/05/27 11:35:07;;;;;;;;;6.00;4.67;;;;;;;;5097465;27;45408;-74
2022/05/27 11:37:33;;;;;;;;;5.33;5.33;;;;;;;;5097424;27;45603;-75
2022/05/27 11:40:16;;;;;;;;;4.00;4.00;;;;;;;;5097771;27;45493;-76
2022/05/27 11:42:43;;;;;;;;;5.00;5.00;;;;;;;;5096982;27;46550;-74
2022/05/27 11:45:11;;;;;;;;;5.00;4.67;;;;;;;;5076450;27;45329;-73
2022/05/27 11:47:37;;;;;;;;;7.00;5.00;;;;;;;;5076865;28;45416;-75
2022/05/27 11:50:16;;;;;;;;;9.00;5.67;;;;;;;;5094743;27;45454;-74
2022/05/27 11:52:44;;;;;;;;;7.33;7.33;;;;;;;;5098313;27;46349;-76
2022/05/27 11:55:12;;;;;;;;;7.33;6.00;;;;;;;;5097857;27;45427;-75
2022/05/27 11:57:56;;;;;;;;;8.00;6.33;;;;;;;;5080871;27;45523;-76
2022/05/27 12:00:24;;;;;;;;;8.00;7.00;;;;;;;;5077083;28;45324;-72
2022/05/27 12:02:54;;;;;;;;;11.00;6.00;;;;;;;;5080975;27;45443;-76
2022/05/27 12:05:28;;;;;;;;;7.00;7.00;;;;;;;;5077762;27;45225;-74
2022/05/27 12:07:55;;;;;;;;;6.00;6.00;;;;;;;;5082259;27;45307;-79
2022/05/27 12:10:29;;;;;;;;;7.67;5.00;;;;;;;;5088381;27;45582;-76
2022/05/27 12:13:01;;;;;;;;;6.67;5.67;;;;;;;;5075844;28;45553;-74
2022/05/27 12:15:26;;;;;;;;;5.00;4.33;;;;;;;;5079142;27;45802;-74
2022/05/27 12:17:53;;;;;;;;;6.67;6.00;;;;;;;;5088591;27;45501;-74
2022/05/27 12:20:22;;;;;;;;;5.00;4.00;;;;;;;;5076227;28;45400;-74
2022/05/27 12:22:57;;;;;;;;;9.00;6.00;;;;;;;;5075028;28;45582;-73
2022/05/27 12:25:33;;;;;;;;;8.00;6.00;;;;;;;;5087258;27;45455;-73
2022/05/27 12:28:02;;;;;;;;;8.00;6.33;;;;;;;;5075806;28;45452;-72
2022/05/27 12:30:35;;;;;;;;;6.00;5.33;;;;;;;;5061312;28;45337;-72
2022/05/27 12:33:01;;;;;;;;;5.67;5.67;;;;;;;;5072349;28;46241;-72
2022/05/27 12:35:44;;;;;;;;;6.67;5.00;;;;;;;;5059861;28;45544;-73
2022/05/27 12:38:17;;;;;;;;;9.33;7.00;;;;;;;;5056581;28;45371;-74
2022/05/27 12:40:47;;;;;;;;;6.00;6.00;;;;;;;;5056366;28;45498;-71
2022/05/27 12:43:20;;;;;;;;;6.67;6.67;;;;;;;;5064598;28;46667;-72
2022/05/27 12:45:46;;;;;;;;;9.33;8.00;;;;;;;;5096477;27;45409;-72
2022/05/27 12:48:22;;;;;;;;;8.00;5.33;;;;;;;;5086582;27;45970;-71
2022/05/27 12:50:53;;;;;;;;;7.00;5.33;;;;;;;;5061111;28;45511;-74
2022/05/27 12:53:23;;;;;;;;;6.00;5.00;;;;;;;;5059352;28;46697;-73
2022/05/27 13:01:36;;;;;;;;;7.67;6.67;;;;;;;;5104833;27;45471;-76
2022/05/27 13:04:03;;;;;;;;;5.33;5.00;;;;;;;;5117922;27;46223;-78
2022/05/27 13:06:31;;;;;;;;;6.33;5.33;;;;;;;;5121179;27;45300;-76
2022/05/27 13:08:58;;;;;;;;;7.00;6.00;;;;;;;;5121107;27;45282;-77
2022/05/27 13:11:24;;;;;;;;;9.33;9.33;;;;;;;;5121152;27;45445;-75
2022/05/27 13:14:12;;;;;;;;;5.00;5.00;;;;;;;;5104529;27;46310;-77
2022/05/27 13:16:46;;;;;;;;;8.67;5.00;;;;;;;;5040153;28;45415;-78
2022/05/27 13:19:23;;;;;;;;;11.33;9.00;;;;;;;;5057356;28;45405;-78
2022/05/27 13:21:52;;;;;;;;;8.67;6.33;;;;;;;;5047719;28;45509;-76
2022/05/27 13:24:17;;;;;;;;;5.33;4.00;;;;;;;;5047465;28;46399;-75
2022/05/27 13:26:54;;;;;;;;;6.00;6.00;;;;;;;;5036909;28;45489;-74
2022/05/27 13:29:25;;;;;;;;;5.00;5.00;;;;;;;;5053671;28;45650;-75
2022/05/27 13:32:00;;;;;;;;;6.00;5.00;;;;;;;;5057322;28;45591;-75
2022/05/27 13:34:44;;;;;;;;;6.67;5.67;;;;;;;;5057039;28;45720;-74
2022/05/27 13:37:17;;;;;;;;;10.67;6.33;;;;;;;;5036928;28;45432;-75
2022/05/27 13:39:53;;;;;;;;;6.33;5.00;;;;;;;;5036873;28;45392;-75
2022/05/27 13:42:39;;;;;;;;;6.33;5.33;;;;;;;;5042116;28;45380;-74
2022/05/27 13:45:13;;;;;;;;;5.67;4.00;;;;;;;;5056519;28;46323;-74
2022/05/27 13:47:42;;;;;;;;;8.33;8.33;;;;;;;;5043199;28;45429;-76
2022/05/27 13:50:23;;;;;;;;;5.67;5.00;;;;;;;;5035526;28;45444;-74
2022/05/27 13:52:51;;;;;;;;;6.67;6.67;;;;;;;;5042157;28;45453;-73
2022/05/27 13:55:18;;;;;;;;;8.33;7.67;;;;;;;;5095551;27;47212;-75
2022/05/27 13:57:49;;;;;;;;;7.00;4.33;;;;;;;;5099826;27;45469;-78
2022/05/27 14:00:17;;;;;;;;;8.67;4.67;;;;;;;;5097631;27;45472;-76
2022/05/27 14:02:51;;;;;;;;;8.00;7.00;;;;;;;;5101626;27;45579;-75
2022/05/27 14:05:24;;;;;;;;;7.00;7.00;;;;;;;;5096560;27;46759;-75
2022/05/27 14:07:51;;;;;;;;;7.00;5.00;;;;;;;;5100479;27;45443;-75
2022/05/27 14:10:24;;;;;;;;;10.00;8.33;;;;;;;;5099943;27;45522;-75
2022/05/27 14:12:49;;;;;;;;;10.33;5.67;;;;;;;;5099956;27;45522;-76
2022/05/27 14:15:27;;;;;;;;;7.00;5.33;;;;;;;;5097987;27;46709;-74
2022/05/27 14:17:52;;;;;;;;;6.33;4.33;;;;;;;;5098628;27;45476;-74
2022/05/27 14:23:24;;;;;;;;;7.00;5.00;;;;;;;;5098341;27;45521;-74
2022/05/27 14:25:53;;;;;;;;;16.33;15.33;;;;;;;;5098214;27;45413;-76
2022/05/27 14:28:24;;;;;;;;;5.67;5.00;;;;;;;;5098663;27;45355;-74
2022/05/27 14:30:53;;;;;;;;;11.33;6.00;;;;;;;;5098160;27;45501;-75
2022/05/27 14:33:24;;;;;;;;;5.00;5.00;;;;;;;;5077887;27;45531;-77
2022/05/27 14:35:50;;;;;;;;;8.00;5.67;;;;;;;;5076429;27;46574;-77
2022/05/27 14:38:20;;;;;;;;;11.33;7.67;;;;;;;;5080625;27;45364;-75
2022/05/27 14:40:46;;;;;;;;;6.33;4.67;;;;;;;;5076524;27;45545;-76
2022/05/27 14:43:30;;;;;;;;;8.67;6.00;;;;;;;;5077253;28;45428;-77
2022/05/27 14:45:57;;;;;;;;;8.00;7.00;;;;;;;;5077077;27;45458;-76
2022/05/27 14:48:22;;;;;;;;;7.67;6.00;;;;;;;;5078739;27;45566;-74
2022/05/27 14:50:48;;;;;;;;;8.00;6.00;;;;;;;;5078139;27;45452;-75
2022/05/27 14:53:15;;;;;;;;;12.00;8.33;;;;;;;;5082762;27;45329;-76
2022/05/27 14:55:40;;;;;;;;;7.67;7.00;;;;;;;;5098459;27;46163;-75
2022/05/27 14:58:07;;;;;;;;;8.67;8.33;;;;;;;;5098415;27;45369;-75
2022/05/27 15:00:35;;;;;;;;;9.67;8.00;;;;;;;;5098704;27;45437;-75
2022/05/27 15:03:19;;;;;;;;;5.33;5.33;;;;;;;;5099020;27;45448;-75
2022/05/27 15:05:49;;;;;;;;;7.33;7.00;;;;;;;;5098174;27;46291;-76
2022/05/27 15:08:22;;;;;;;;;8.00;6.33;;;;;;;;5087959;27;45489;-76
2022/05/27 15:11:06;;;;;;;;;9.33;6.00;;;;;;;;5087504;27;45444;-76
2022/05/27 15:13:46;;;;;;;;;5.00;4.67;;;;;;;;5068158;27;45450;-76
2022/05/27 15:16:13;;;;;;;;;8.33;6.33;;;;;;;;5088450;27;46451;-74
2022/05/27 15:18:55;;;;;;;;;8.33;6.00;;;;;;;;5089667;27;45410;-74
2022/05/27 15:21:26;;;;;;;;;6.00;6.00;;;;;;;;5079465;27;45481;-71
2022/05/27 15:24:01;;;;;;;;;7.00;7.00;;;;;;;;5078217;28;45455;-71
2022/05/27 15:34:44;;;;;;;;;6.67;6.33;;;;;;;;5060366;27;45394;-74
2022/05/27 15:37:09;;;;;;;;;5.67;5.67;;;;;;;;5091211;27;45497;-73
2022/05/27 15:39:35;;;;;;;;;5.67;5.67;;;;;;;;5077508;28;45472;-74
2022/05/27 15:42:00;;;;;;;;;9.00;6.00;;;;;;;;5096019;27;45521;-74
2022/05/27 15:44:25;;;;;;;;;5.00;5.00;;;;;;;;5094020;27;45345;-74
2022/05/27 15:46:50;;;;;;;;;6.00;5.00;;;;;;;;5077150;27;46385;-74